Time;durP1;ratioP1;P1;durP2;ratioP2;P2;SDS_P1;SDS_P2;PMS_P1;PMS_P2;Temp;Humidity;BMP_temperature;BMP_pressure;BME280_temperature;BME280_humidity;BME280_pressure;Samples;Min_cycle;Max_cycle;Signal;HPM_P1;HPM_P2
2021/12/17 00:03:08;;;;;;;13.13;6.67;;;;;;;6.24;74.50;101679.56;5474420;32;33635;-61
2021/12/17 00:06:11;;;;;;;11.97;6.23;;;;;;;6.94;72.55;101682.03;5445364;32;34641;-62
2021/12/17 00:09:14;;;;;;;12.30;6.63;;;;;;;6.52;73.56;101683.03;5440068;32;33230;-63
2021/12/17 00:12:20;;;;;;;11.67;5.67;;;;;;;6.92;71.58;101691.63;5460115;32;33253;-61
2021/12/17 00:15:22;;;;;;;14.37;6.80;;;;;;;7.00;71.85;101702.06;5457141;32;34967;-61
2021/12/17 00:18:33;;;;;;;11.60;5.77;;;;;;;5.99;75.01;101704.84;5464586;32;33288;-62
2021/12/17 00:48:37;;;;;;;12.30;5.63;;;;;;;6.04;72.89;101668.28;5451969;32;34590;-62
2021/12/17 00:52:00;;;;;;;12.70;6.30;;;;;;;5.56;74.01;101667.34;5429039;32;34289;-62
2021/12/17 00:55:07;;;;;;;11.27;5.57;;;;;;;6.13;71.88;101656.09;5448483;32;32879;-63
2021/12/17 00:58:10;;;;;;;10.80;5.03;;;;;;;5.81;72.33;101658.69;5439789;32;35182;-62
2021/12/17 01:01:15;;;;;;;11.97;5.30;;;;;;;6.00;70.88;101651.75;5456298;32;34682;-63
2021/12/17 01:04:17;;;;;;;12.57;5.37;;;;;;;5.80;71.14;101656.94;5455593;32;34862;-62
2021/12/17 01:07:22;;;;;;;10.33;5.00;;;;;;;6.07;69.92;101663.94;5458696;32;34709;-61
2021/12/17 01:10:35;;;;;;;10.67;5.17;;;;;;;5.76;70.73;101670.84;5440227;32;34179;-62
2021/12/17 01:13:41;;;;;;;14.13;4.60;;;;;;;6.70;66.75;101659.47;5448870;32;34209;-62
2021/12/17 01:16:43;;;;;;;9.63;4.80;;;;;;;6.49;67.20;101659.50;5453173;32;34108;-61
2021/12/17 01:36:26;;;;;;;11.52;4.90;;;;;;;6.79;64.15;101637.66;5446580;32;34127;-62
2021/12/17 01:40:40;;;;;;;11.70;4.80;;;;;;;6.01;67.29;101636.97;5441002;32;33143;-63
2021/12/17 01:43:04;;;;;;;9.77;4.77;;;;;;;6.41;66.62;101629.94;5456104;32;34242;-64
2021/12/17 01:46:11;;;;;;;10.65;4.90;;;;;;;6.41;65.91;101625.59;5455118;32;34117;-61
2021/12/17 01:56:18;;;;;;;9.87;4.17;;;;;;;6.04;66.52;101611.72;5454597;32;34392;-62
2021/12/17 01:59:33;;;;;;;10.33;4.87;;;;;;;5.79;67.08;101608.22;5448235;32;33969;-62
2021/12/17 02:02:45;;;;;;;10.40;4.57;;;;;;;6.05;65.72;101599.53;5443229;32;33840;-61
2021/12/17 02:05:50;;;;;;;9.20;4.13;;;;;;;6.55;64.11;101590.72;5444606;32;33961;-61
2021/12/17 02:08:54;;;;;;;10.37;4.53;;;;;;;6.37;64.65;101596.88;5439080;32;35197;-62
2021/12/17 02:28:46;;;;;;;10.43;3.83;;;;;;;6.36;61.61;101579.47;5439182;32;33971;-62
2021/12/17 02:31:55;;;;;;;8.33;3.43;;;;;;;6.57;61.68;101588.97;5443393;32;34630;-61
2021/12/17 02:38:15;;;;;;;8.07;3.40;;;;;;;5.57;64.38;101604.75;5462657;32;33827;-61
2021/12/17 02:48:07;;;;;;;7.63;2.77;;;;;;;5.85;63.54;101586.47;5458207;32;32909;-61
2021/12/17 02:51:11;;;;;;;9.33;3.33;;;;;;;5.70;62.97;101592.56;5454529;32;33275;-62
2021/12/17 02:54:14;;;;;;;11.43;3.20;;;;;;;5.63;62.41;101583.88;5447852;32;34495;-62
2021/12/17 02:57:18;;;;;;;7.13;2.87;;;;;;;5.62;62.30;101592.56;5443584;32;36236;-62
2021/12/17 03:00:20;;;;;;;8.38;3.05;;;;;;;6.05;60.80;101576.03;5426552;32;34231;-63
2021/12/17 03:03:25;;;;;;;9.47;3.13;;;;;;;6.36;59.86;101579.47;5455461;32;33996;-61
2021/12/17 03:06:28;;;;;;;7.13;2.40;;;;;;;5.71;60.99;101573.44;5441698;32;33841;-61
2021/12/17 03:10:32;;;;;;;12.55;3.50;;;;;;;5.79;60.93;101586.47;5449984;32;34616;-61
2021/12/17 03:13:04;;;;;;;8.00;2.80;;;;;;;5.90;60.82;101592.56;5439122;32;34545;-61
2021/12/17 03:16:23;;;;;;;9.00;3.37;;;;;;;5.60;61.41;101585.59;5438728;32;32936;-61
2021/12/17 03:23:26;;;;;;;7.10;3.30;;;;;;;5.75;60.97;101579.53;5437283;32;33153;-62
2021/12/17 03:26:16;;;;;;;6.27;2.53;;;;;;;5.68;61.60;101583.88;5440284;32;34714;-62
2021/12/17 03:29:19;;;;;;;8.40;3.30;;;;;;;5.67;61.91;101596.06;5446315;32;34527;-62
2021/12/17 03:32:22;;;;;;;7.30;3.20;;;;;;;5.87;60.99;101603.88;5443911;32;34171;-62
2021/12/17 03:35:27;;;;;;;10.13;3.70;;;;;;;5.61;61.94;101624.75;5449892;32;32942;-62
2021/12/17 03:38:30;;;;;;;9.53;3.70;;;;;;;5.38;63.06;101624.69;5456919;32;35581;-61
2021/12/17 03:41:38;;;;;;;6.50;3.00;;;;;;;5.41;62.82;101627.34;5420924;32;34000;-61
2021/12/17 03:44:41;;;;;;;9.67;3.30;;;;;;;5.47;62.80;101631.66;5456704;32;34979;-62
2021/12/17 03:47:44;;;;;;;8.67;3.33;;;;;;;5.64;62.23;101609.09;5439388;32;32814;-61
2021/12/17 03:50:46;;;;;;;7.57;3.20;;;;;;;5.58;62.08;101605.59;5436728;32;34828;-61
2021/12/17 03:53:56;;;;;;;7.40;3.07;;;;;;;5.75;61.38;101606.50;5447824;32;35231;-61
2021/12/17 03:57:01;;;;;;;9.77;3.50;;;;;;;5.49;62.43;101606.47;5444049;32;34950;-62
2021/12/17 04:00:06;;;;;;;8.50;3.30;;;;;;;5.65;61.77;101615.16;5446005;32;34020;-62
2021/12/17 04:03:10;;;;;;;7.73;3.73;;;;;;;5.85;61.59;101612.56;5450672;32;32953;-63
2021/12/17 04:06:13;;;;;;;7.63;3.40;;;;;;;5.73;61.34;101616.03;5461754;32;34681;-61
2021/12/17 04:09:19;;;;;;;9.57;3.60;;;;;;;5.78;61.92;101616.91;5441612;32;34003;-61
2021/12/17 04:12:27;;;;;;;7.83;3.20;;;;;;;5.32;63.50;101600.34;5450876;32;33217;-62
2021/12/17 04:15:35;;;;;;;11.27;3.63;;;;;;;6.17;61.27;101615.19;5444106;32;35187;-61
2021/12/17 04:18:42;;;;;;;11.53;4.70;;;;;;;5.53;63.09;101629.06;5451696;32;32602;-62
2021/12/17 04:21:45;;;;;;;10.30;3.77;;;;;;;5.74;63.11;101629.97;5462252;32;33323;-63
2021/12/17 04:24:47;;;;;;;10.17;3.37;;;;;;;6.18;61.69;101625.66;5450974;32;34153;-63
2021/12/17 04:27:50;;;;;;;10.47;4.07;;;;;;;6.32;60.79;101625.63;5458550;32;34092;-61
2021/12/17 04:30:52;;;;;;;10.93;4.40;;;;;;;5.97;62.82;101629.13;5442442;32;33918;-63
2021/12/17 04:33:55;;;;;;;10.57;4.00;;;;;;;5.59;64.18;101641.25;5467508;32;33594;-61
2021/12/17 04:36:58;;;;;;;10.10;4.15;;;;;;;6.08;62.74;101617.81;5439163;32;34457;-61
2021/12/17 04:40:03;;;;;;;10.93;4.55;;;;;;;6.31;61.99;101628.22;5456934;32;33865;-62
2021/12/17 04:46:26;;;;;;;14.13;6.20;;;;;;;6.54;59.92;101602.06;5454237;32;34508;-61
2021/12/17 04:59:34;;;;;;;11.40;5.43;;;;;;;6.74;60.30;101600.22;5459038;32;33260;-63
2021/12/17 05:02:42;;;;;;;9.67;4.13;;;;;;;7.47;57.70;101601.56;5448971;32;32795;-61
2021/12/17 05:05:46;;;;;;;9.10;4.20;;;;;;;7.70;56.60;101597.03;5457396;32;34532;-62
2021/12/17 05:08:56;;;;;;;11.17;5.20;;;;;;;6.72;58.63;101596.75;5443083;32;35328;-61
2021/12/17 05:19:02;;;;;;;10.23;4.53;;;;;;;7.42;55.67;101570.22;5443145;32;34841;-63
2021/12/17 05:22:09;;;;;;;8.87;3.70;;;;;;;7.85;54.59;101562.00;5452410;32;35264;-62
2021/12/17 05:25:14;;;;;;;9.87;3.60;;;;;;;6.37;56.38;101566.41;5455298;32;34810;-62
2021/12/17 05:28:16;;;;;;;8.80;3.08;;;;;;;6.27;57.70;101579.50;5449660;32;33997;-61
2021/12/17 05:31:21;;;;;;;10.33;3.83;;;;;;;6.38;56.48;101577.75;5437542;32;34368;-63
2021/12/17 05:34:24;;;;;;;9.37;3.20;;;;;;;6.57;56.61;101561.12;5459238;32;35316;-61
2021/12/17 05:37:29;;;;;;;8.73;3.70;;;;;;;6.51;56.46;101579.44;5453505;32;34584;-61
2021/12/17 05:40:32;;;;;;;8.97;3.20;;;;;;;6.78;56.44;101555.81;5430591;32;34742;-61
2021/12/17 05:43:37;;;;;;;9.10;3.60;;;;;;;6.12;58.57;101562.13;5436359;32;35050;-62
2021/12/17 05:46:49;;;;;;;9.53;3.10;;;;;;;5.72;59.74;101552.56;5444601;32;35650;-63
2021/12/17 05:49:51;;;;;;;7.07;2.93;;;;;;;5.62;60.42;101557.81;5450822;32;34121;-62
2021/12/17 05:52:56;;;;;;;9.43;4.03;;;;;;;5.59;60.51;101557.78;5434958;32;33794;-61
2021/12/17 05:56:00;;;;;;;8.87;3.43;;;;;;;5.78;60.37;101548.22;5439960;32;34977;-61
2021/12/17 05:59:03;;;;;;;8.63;4.33;;;;;;;5.59;61.12;101540.41;5445794;32;32703;-62
2021/12/17 06:02:11;;;;;;;7.50;3.67;;;;;;;5.43;62.40;101554.31;5445693;32;35043;-63
2021/12/17 06:05:14;;;;;;;11.43;3.60;;;;;;;5.87;60.83;101549.09;5443885;32;33931;-63
2021/12/17 06:08:16;;;;;;;8.60;3.37;;;;;;;5.76;61.44;101537.78;5447732;32;34547;-63
2021/12/17 06:11:20;;;;;;;9.23;3.63;;;;;;;5.94;60.83;101544.75;5430561;32;34858;-61
2021/12/17 06:14:22;;;;;;;;;;;;;;;5.62;60.93;101569.09;5445078;32;33226;-61
2021/12/17 06:17:27;;;;;;;13.00;3.83;;;;;;;5.66;60.29;101563.00;5434182;32;34629;-62
2021/12/17 06:20:35;;;;;;;12.33;4.43;;;;;;;5.71;60.51;101560.41;5420917;32;34023;-61
2021/12/17 06:23:38;;;;;;;10.63;3.45;;;;;;;5.46;61.49;101554.31;5457750;32;35384;-62
2021/12/17 06:26:43;;;;;;;7.77;3.23;;;;;;;5.54;61.30;101556.91;5440427;32;32966;-63
2021/12/17 06:29:46;;;;;;;;;;;;;;;5.62;60.58;101550.84;5447333;32;33158;-62
2021/12/17 06:32:54;;;;;;;8.63;3.00;;;;;;;5.67;60.51;101535.22;5441030;32;34998;-62
2021/12/17 06:35:58;;;;;;;10.67;3.20;;;;;;;5.91;59.68;101556.06;5445743;32;34413;-64
2021/12/17 06:39:02;;;;;;;9.20;3.30;;;;;;;5.63;60.22;101554.31;5433937;32;32984;-62
2021/12/17 06:42:07;;;;;;;9.57;3.40;;;;;;;5.65;60.09;101578.66;5432198;32;33627;-61
2021/12/17 06:45:23;;;;;;;12.73;3.90;;;;;;;5.67;60.28;101589.97;5458921;32;33315;-62
2021/12/17 06:48:28;;;;;;;9.70;3.90;;;;;;;5.89;60.51;101591.69;5453926;32;34670;-62
2021/12/17 07:11:37;;;;;;;9.13;3.77;;;;;;;5.73;62.44;101616.03;5444951;32;33329;-64
2021/12/17 07:21:32;;;;;;;7.87;3.23;;;;;;;5.36;63.40;101618.62;5420768;32;34307;-68
2021/12/17 07:34:40;;;;;;;10.33;3.90;;;;;;;5.60;62.99;101642.97;5449724;32;33738;-71
2021/12/17 07:41:19;;;;;;;14.07;4.13;;;;;;;5.94;62.33;101660.44;5457373;32;34175;-68
2021/12/17 07:44:21;;;;;;;9.03;3.60;;;;;;;5.35;64.10;101668.16;5451666;32;35146;-68
2021/12/17 07:47:25;;;;;;;9.97;3.90;;;;;;;5.27;64.47;101678.53;5452796;32;35198;-70
2021/12/17 07:50:28;;;;;;;12.55;4.18;;;;;;;5.42;64.68;101676.00;5451687;32;34186;-67
2021/12/17 07:53:42;;;;;;;9.30;4.13;;;;;;;5.41;64.50;101684.69;5455573;32;33930;-74
2021/12/17 07:56:49;;;;;;;11.17;4.20;;;;;;;5.74;63.42;101689.97;5427323;32;34031;-69
2021/12/17 07:59:51;;;;;;;9.73;3.87;;;;;;;5.52;64.33;101684.69;5460260;32;34172;-67
2021/12/17 08:02:57;;;;;;;8.63;3.03;;;;;;;6.01;62.55;101674.37;5452425;32;33270;-61
2021/12/17 08:06:00;;;;;;;10.33;4.20;;;;;;;5.69;62.67;101672.56;5443592;32;34154;-62
2021/12/17 08:09:04;;;;;;;9.00;3.37;;;;;;;5.76;62.39;101649.97;5445397;32;33939;-66
2021/12/17 08:12:10;;;;;;;8.63;3.50;;;;;;;5.78;62.01;101660.41;5426828;32;33040;-73
2021/12/17 08:15:14;;;;;;;11.10;4.17;;;;;;;5.58;62.49;101655.16;5451637;32;32866;-62
2021/12/17 08:18:33;;;;;;;13.10;3.30;;;;;;;6.10;60.97;101665.66;5451080;32;35175;-68
2021/12/17 08:25:12;;;;;;;8.73;2.87;;;;;;;6.29;60.30;101648.25;5454031;32;35766;-69
2021/12/17 08:28:17;;;;;;;11.23;2.90;;;;;;;6.07;60.42;101647.41;5427822;32;34032;-65
2021/12/17 08:31:22;;;;;;;11.63;3.40;;;;;;;5.69;61.34;101676.91;5444801;32;34753;-69
2021/12/17 08:34:30;;;;;;;6.67;2.83;;;;;;;6.03;60.34;101674.37;5430190;32;37871;-70
2021/12/17 08:37:33;;;;;;;8.23;3.23;;;;;;;6.05;59.86;101678.69;5433515;32;33879;-67
2021/12/17 08:40:36;;;;;;;11.90;3.80;;;;;;;6.22;59.32;101689.16;5449394;32;34207;-64
2021/12/17 08:43:41;;;;;;;9.25;3.15;;;;;;;6.27;59.30;101687.41;5438894;32;35581;-69
2021/12/17 08:46:44;;;;;;;8.47;3.27;;;;;;;6.38;59.36;101688.28;5452508;32;32624;-70
2021/12/17 08:49:48;;;;;;;12.73;3.10;;;;;;;6.13;59.87;101700.47;5435093;32;34662;-69
2021/12/17 08:52:52;;;;;;;11.07;3.40;;;;;;;6.45;58.78;101700.47;5436462;32;36046;-71
2021/12/17 08:55:55;;;;;;;9.27;3.43;;;;;;;6.11;59.76;101703.94;5421350;32;34012;-71
2021/12/17 08:59:04;;;;;;;12.18;3.28;;;;;;;6.27;59.72;101690.03;5453122;32;33950;-69
2021/12/17 09:02:07;;;;;;;13.33;3.60;;;;;;;5.99;60.26;101681.34;5459714;32;35514;-68
2021/12/17 09:05:18;;;;;;;7.12;3.10;;;;;;;6.69;58.48;101675.16;5433928;32;368661;-71
2021/12/17 09:08:24;;;;;;;6.10;2.77;;;;;;;6.29;59.84;101685.66;5435228;32;32700;-74
2021/12/17 09:11:30;;;;;;;10.83;4.23;;;;;;;6.68;58.65;101689.94;5436368;32;34239;-64
2021/12/17 09:14:35;;;;;;;21.93;4.40;;;;;;;6.95;57.97;101670.69;5451392;32;34651;-64
2021/12/17 09:17:38;;;;;;;8.63;3.03;;;;;;;6.34;59.52;101685.66;5436540;32;34284;-67
2021/12/17 09:20:43;;;;;;;;;;;;;;;6.57;58.15;101673.44;5451523;32;34757;-64
2021/12/17 09:23:46;;;;;;;11.88;3.47;;;;;;;7.13;56.47;101674.13;5461343;32;34188;-65
2021/12/17 09:26:49;;;;;;;9.85;3.10;;;;;;;6.94;56.67;101687.25;5439852;32;35022;-69
2021/12/17 09:29:52;;;;;;;10.00;3.20;;;;;;;7.25;55.14;101682.78;5435745;32;34922;-66
2021/12/17 09:32:54;;;;;;;18.30;3.90;;;;;;;6.89;56.39;101681.22;5457673;32;34689;-68
2021/12/17 09:35:58;;;;;;;9.30;2.95;;;;;;;7.24;55.92;101678.44;5434615;32;33251;-66
2021/12/17 09:39:00;;;;;;;11.43;3.77;;;;;;;7.47;55.56;101690.50;5425215;32;34253;-64
2021/12/17 09:42:03;;;;;;;9.10;3.03;;;;;;;8.03;54.25;101687.50;5452714;32;34695;-63
2021/12/17 09:45:06;;;;;;;9.10;3.65;;;;;;;7.40;55.75;101684.44;5457746;32;34592;-66
2021/12/17 09:48:08;;;;;;;11.45;3.35;;;;;;;7.39;56.01;101684.47;5442163;32;34225;-68
2021/12/17 09:51:11;;;;;;;14.40;3.47;;;;;;;6.84;57.27;101684.69;5434441;32;33274;-71
2021/12/17 09:54:16;;;;;;;10.10;3.33;;;;;;;7.02;57.33;101676.81;5451583;32;34811;-67
2021/12/17 09:57:21;;;;;;;9.87;2.90;;;;;;;6.96;57.21;101682.06;5433428;32;34089;-68
2021/12/17 10:00:26;;;;;;;13.48;3.42;;;;;;;7.42;55.86;101684.47;5439709;32;34203;-64
2021/12/17 10:03:35;;;;;;;12.23;3.43;;;;;;;7.83;54.96;101686.78;5433907;32;35444;-65
2021/12/17 10:06:40;;;;;;;14.67;2.87;;;;;;;7.20;56.74;101687.16;5438555;32;35694;-64
2021/12/17 10:09:46;;;;;;;;;;;;;;;7.50;55.86;101678.28;5440486;32;34417;-59
2021/12/17 10:12:53;;;;;;;8.07;3.40;;;;;;;7.23;56.90;101681.94;5446707;32;32616;-72
2021/12/17 10:16:12;;;;;;;8.33;3.10;;;;;;;7.66;55.46;101686.03;5457613;32;33145;-64
2021/12/17 10:19:45;;;;;;;11.17;3.57;;;;;;;6.67;58.59;101684.75;5432347;32;35711;-65
2021/12/17 10:23:01;;;;;;;12.73;3.20;;;;;;;6.73;58.65;101674.28;5446411;32;34357;-62
2021/12/17 10:26:04;;;;;;;8.90;2.77;;;;;;;7.07;57.49;101673.25;5436054;32;34335;-65
2021/12/17 10:29:07;;;;;;;13.40;3.10;;;;;;;6.68;58.75;101681.25;5433490;32;35199;-68
2021/12/17 10:32:19;;;;;;;6.68;2.90;;;;;;;6.65;58.96;101676.03;5435112;32;33060;-65
2021/12/17 10:35:23;;;;;;;9.87;3.27;;;;;;;7.12;57.80;101675.88;5431601;32;34780;-69
2021/12/17 10:38:26;;;;;;;9.37;3.60;;;;;;;7.12;57.98;101669.78;5442449;32;34405;-67
2021/12/17 10:41:45;;;;;;;8.13;3.60;;;;;;;7.24;57.54;101667.97;5447813;32;33305;-67
2021/12/17 10:45:03;;;;;;;10.30;3.47;;;;;;;7.43;56.88;101667.87;5433011;32;32925;-67
2021/12/17 10:48:26;;;;;;;9.03;3.87;;;;;;;7.14;58.17;101661.03;5438110;32;35279;-72
2021/12/17 10:55:11;;;;;;;11.53;3.77;;;;;;;7.42;57.63;101666.16;5405145;32;33290;-60
2021/12/17 10:58:13;;;;;;;8.93;3.03;;;;;;;7.42;57.92;101666.16;5437626;32;34077;-61
2021/12/17 11:01:16;;;;;;;14.87;4.20;;;;;;;7.52;57.23;101671.28;5442200;32;34083;-59
2021/12/17 11:04:25;;;;;;;9.27;3.70;;;;;;;7.47;57.50;101670.47;5439762;32;35426;-66
2021/12/17 11:07:28;;;;;;;11.13;4.63;;;;;;;6.96;58.84;101668.97;5448306;32;33955;-63
2021/12/17 11:10:31;;;;;;;9.07;3.77;;;;;;;7.48;57.47;101659.12;5452853;32;35092;-65
2021/12/17 11:13:34;;;;;;;;;;;;;;;7.22;57.71;101653.19;5433599;32;34066;-63
2021/12/17 11:16:38;;;;;;;13.23;3.60;;;;;;;7.18;57.85;101654.06;5457987;32;34259;-60
2021/12/17 11:19:41;;;;;;;9.00;3.08;;;;;;;7.52;57.04;101652.97;5437964;32;35212;-62
2021/12/17 11:22:45;;;;;;;12.13;4.12;;;;;;;7.32;56.50;101654.84;5439979;32;33882;-62
2021/12/17 11:25:49;;;;;;;11.67;4.20;;;;;;;7.62;56.63;101647.69;5455141;32;33922;-62
2021/12/17 11:28:52;;;;;;;10.38;3.42;;;;;;;7.41;56.89;101639.12;5438922;32;33072;-63
2021/12/17 11:31:57;;;;;;;12.50;3.80;;;;;;;7.75;56.62;101657.19;5459496;32;34579;-68
2021/12/17 11:35:00;;;;;;;14.23;4.25;;;;;;;7.44;57.56;101651.31;5434851;32;33914;-68
2021/12/17 11:38:13;;;;;;;12.17;4.00;;;;;;;7.52;57.45;101647.75;5446492;32;33961;-69
2021/12/17 11:41:48;;;;;;;9.27;3.93;;;;;;;8.10;55.56;101646.44;5441797;32;33953;-65
2021/12/17 11:45:23;;;;;;;12.82;3.60;;;;;;;7.56;56.76;101643.37;5456237;32;34945;-62
2021/12/17 11:48:22;;;;;;;12.80;3.87;;;;;;;7.39;57.82;101643.47;5457857;32;33038;-61
2021/12/17 11:51:34;;;;;;;8.90;3.13;;;;;;;8.11;55.40;101633.34;5447199;32;33948;-64
2021/12/17 11:54:40;;;;;;;9.75;3.60;;;;;;;8.30;54.71;101633.16;5440985;32;33552;-65
2021/12/17 11:57:57;;;;;;;10.77;3.33;;;;;;;7.74;55.98;101631.91;5456690;32;33920;-70
2021/12/17 12:01:05;;;;;;;7.30;2.97;;;;;;;8.77;52.93;101623.97;5451737;32;34219;-71
2021/12/17 12:04:35;;;;;;;11.15;4.80;;;;;;;9.36;50.86;101624.91;5445246;32;34338;-74
2021/12/17 12:07:40;;;;;;;6.67;3.20;;;;;;;11.06;46.62;101625.41;5437843;32;32605;-63
2021/12/17 12:11:03;;;;;;;10.17;3.37;;;;;;;10.25;46.65;101624.38;5442702;32;33137;-74
2021/12/17 12:14:31;;;;;;;10.03;3.43;;;;;;;11.17;45.75;101619.91;5457377;32;34148;-67
2021/12/17 12:18:12;;;;;;;11.80;3.00;;;;;;;10.39;47.11;101621.50;5450708;32;34721;-69
2021/12/17 12:21:24;;;;;;;8.33;3.00;;;;;;;9.85;47.98;101621.53;5439537;32;35139;-65
2021/12/17 12:24:28;;;;;;;8.63;3.40;;;;;;;10.14;48.02;101616.66;5443782;32;33373;-66
2021/12/17 12:27:36;;;;;;;12.88;3.53;;;;;;;10.06;48.01;101617.69;5445869;32;34821;-67
2021/12/17 12:30:57;;;;;;;11.20;3.33;;;;;;;8.79;51.54;101628.28;5417443;32;34681;-66
2021/12/17 12:34:08;;;;;;;9.13;3.07;;;;;;;8.77;51.98;101626.59;5418304;32;32687;-68
2021/12/17 12:37:30;;;;;;;13.83;3.93;;;;;;;9.45;50.50;101617.75;5437592;32;34488;-67
2021/12/17 12:40:44;;;;;;;8.40;3.05;;;;;;;9.32;50.27;101629.34;5427118;32;34441;-65
2021/12/17 12:43:48;;;;;;;9.90;3.43;;;;;;;9.92;48.75;101610.06;5426265;32;34994;-68
2021/12/17 12:46:53;;;;;;;11.45;2.78;;;;;;;8.40;53.08;101629.59;5445785;32;34833;-68
2021/12/17 12:50:19;;;;;;;11.67;3.27;;;;;;;8.09;53.48;101642.94;5431998;32;36098;-68
2021/12/17 12:53:34;;;;;;;8.00;3.40;;;;;;;8.74;52.36;101637.94;5438376;32;34824;-66
2021/12/17 12:56:40;;;;;;;15.27;3.07;;;;;;;9.46;50.44;101639.63;5438220;32;34023;-66
2021/12/17 12:59:46;;;;;;;7.80;3.37;;;;;;;8.91;51.57;101638.62;5430588;32;32984;-68
2021/12/17 13:03:00;;;;;;;27.20;4.13;;;;;;;8.72;51.50;101631.00;5425185;32;34386;-68
2021/12/17 13:06:03;;;;;;;;;;;;;;;8.14;52.78;101628.06;5444437;32;37171;-66
2021/12/17 13:09:06;;;;;;;10.10;2.80;;;;;;;7.73;53.58;101630.16;5447862;32;34583;-66
2021/12/17 13:12:10;;;;;;;14.13;3.50;;;;;;;7.65;54.32;101627.59;5445335;32;35138;-67
2021/12/17 13:15:20;;;;;;;15.63;3.00;;;;;;;7.72;53.94;101628.41;5436623;32;34067;-67
2021/12/17 13:22:03;;;;;;;12.43;3.37;;;;;;;7.71;54.92;101616.22;5450192;32;35955;-67
2021/12/17 13:25:06;;;;;;;8.63;2.87;;;;;;;7.68;54.66;101605.78;5455649;32;35060;-67
2021/12/17 13:28:10;;;;;;;10.07;3.50;;;;;;;7.28;56.07;101606.94;5462294;32;32781;-67
2021/12/17 13:31:34;;;;;;;14.23;4.33;;;;;;;7.59;55.70;101601.47;5454680;32;34281;-66
2021/12/17 13:34:43;;;;;;;10.67;5.07;;;;;;;7.18;57.03;101604.38;5444910;32;34692;-68
2021/12/17 13:37:46;;;;;;;10.30;3.10;;;;;;;7.46;56.88;101607.69;5457428;32;32929;-67
2021/12/17 13:40:53;;;;;;;8.50;2.87;;;;;;;7.47;55.74;101605.06;5429275;32;33081;-66
2021/12/17 13:43:55;;;;;;;10.50;3.63;;;;;;;7.44;56.55;101609.44;5463345;32;34561;-65
2021/12/17 13:47:20;;;;;;;10.53;3.43;;;;;;;7.02;57.94;101620.16;5453769;32;33977;-67
2021/12/17 13:50:24;;;;;;;15.07;3.40;;;;;;;7.47;56.77;101615.53;5461431;32;33148;-65
2021/12/17 13:53:31;;;;;;;9.70;3.43;;;;;;;7.50;56.10;101622.50;5446602;32;36483;-65
2021/12/17 13:56:59;;;;;;;9.17;3.00;;;;;;;7.38;57.06;101628.66;5443314;32;34982;-66
2021/12/17 14:00:06;;;;;;;8.43;3.10;;;;;;;7.47;56.51;101639.09;5457326;32;34111;-67
2021/12/17 14:03:16;;;;;;;8.20;3.73;;;;;;;8.35;53.77;101631.34;5444224;32;32978;-67
2021/12/17 14:06:28;;;;;;;7.10;2.90;;;;;;;7.96;54.54;101633.47;5447528;32;34674;-66
2021/12/17 14:09:34;;;;;;;10.10;3.37;;;;;;;7.17;56.53;101631.41;5441533;32;32897;-64
2021/12/17 14:12:42;;;;;;;12.33;3.43;;;;;;;7.48;55.95;101629.47;5445360;32;34835;-67
2021/12/17 14:16:05;;;;;;;9.40;3.40;;;;;;;7.08;56.78;101640.16;5452536;32;34779;-67
2021/12/17 14:19:08;;;;;;;;;;;;;;;6.86;57.84;101636.78;5453349;32;34226;-66
2021/12/17 14:22:32;;;;;;;8.87;3.63;;;;;;;7.00;57.57;101626.25;5452265;32;34250;-66
2021/12/17 14:25:40;;;;;;;12.97;3.60;;;;;;;6.71;58.23;101623.78;5452653;32;35787;-66
2021/12/17 14:28:43;;;;;;;9.53;3.00;;;;;;;7.69;55.55;101623.22;5446664;32;34596;-66
2021/12/17 14:31:46;;;;;;;11.77;3.60;;;;;;;7.28;56.47;101614.78;5447012;32;33946;-65
2021/12/17 14:34:52;;;;;;;10.90;4.07;;;;;;;7.24;56.50;101626.13;5437334;32;34627;-67
2021/12/17 14:38:02;;;;;;;9.87;3.27;;;;;;;7.06;57.11;101623.59;5440153;32;34564;-67
2021/12/17 14:41:11;;;;;;;11.23;3.60;;;;;;;7.18;56.69;101612.22;5442694;32;34800;-66
2021/12/17 14:47:49;;;;;;;9.23;3.57;;;;;;;6.65;58.37;101621.19;5448324;32;35085;-66
2021/12/17 15:01:27;;;;;;;8.83;3.43;;;;;;;6.35;59.51;101619.50;5452244;32;34517;-67
2021/12/17 15:04:32;;;;;;;10.97;3.93;;;;;;;7.23;57.24;101605.22;5449232;32;35363;-65
2021/12/17 15:07:40;;;;;;;15.40;4.00;;;;;;;7.21;57.18;101602.63;5459063;32;34522;-65
2021/12/17 15:10:47;;;;;;;10.40;3.30;;;;;;;6.58;58.73;101609.03;5441341;32;33388;-65
2021/12/17 15:13:52;;;;;;;10.98;3.65;;;;;;;6.42;58.94;101606.44;5449507;32;34471;-66
2021/12/17 15:16:56;;;;;;;10.37;3.83;;;;;;;5.81;61.26;101622.16;5444459;32;33513;-67
2021/12/17 15:20:00;;;;;;;7.90;3.53;;;;;;;5.96;60.80;101608.25;5458717;32;34070;-66
2021/12/17 15:23:04;;;;;;;10.83;3.27;;;;;;;5.96;60.67;101608.25;5459682;32;33606;-66
2021/12/17 15:26:07;;;;;;;12.10;3.27;;;;;;;6.21;59.95;101611.72;5461652;32;33283;-69
2021/12/17 15:29:17;;;;;;;10.70;2.87;;;;;;;6.29;59.59;101601.25;5460655;32;33523;-68
2021/12/17 15:32:21;;;;;;;10.13;3.70;;;;;;;6.50;59.18;101607.31;5455511;32;35175;-67
2021/12/17 15:35:26;;;;;;;9.07;3.23;;;;;;;6.51;59.30;101606.41;5452204;32;34935;-66
2021/12/17 15:38:30;;;;;;;9.13;3.10;;;;;;;5.92;60.64;101607.38;5446189;32;34257;-66
2021/12/17 15:41:32;;;;;;;12.90;4.35;;;;;;;6.11;60.74;101608.22;5435557;32;34152;-67
2021/12/17 15:44:36;;;;;;;11.83;3.73;;;;;;;6.16;60.12;101606.47;5458253;32;34037;-65
2021/12/17 15:47:42;;;;;;;9.07;2.90;;;;;;;5.90;61.24;101614.31;5436731;32;35392;-65
2021/12/17 15:50:44;;;;;;;6.45;2.83;;;;;;;6.23;60.22;101604.72;5442568;32;33085;-65
2021/12/17 15:53:47;;;;;;;7.23;3.17;;;;;;;6.28;60.22;101600.38;5460741;32;32713;-66
2021/12/17 15:56:49;;;;;;;11.30;3.70;;;;;;;5.79;61.32;101608.22;5447654;32;34435;-67
2021/12/17 15:59:54;;;;;;;10.20;3.33;;;;;;;5.62;62.00;101612.56;5452630;32;34307;-65
2021/12/17 16:02:56;;;;;;;10.80;3.20;;;;;;;5.89;61.30;101609.09;5446105;32;33971;-66
2021/12/17 16:06:03;;;;;;;12.00;3.72;;;;;;;5.91;61.00;101600.41;5445089;32;33273;-65
2021/12/17 16:09:16;;;;;;;12.50;4.53;;;;;;;5.90;60.70;101608.22;5448311;32;33178;-64
2021/12/17 16:21:58;;;;;;;9.70;2.93;;;;;;;6.17;59.11;101613.44;5452842;32;35082;-66
2021/12/17 16:25:04;;;;;;;12.37;3.70;;;;;;;5.88;59.80;101612.59;5442149;32;34047;-66
2021/12/17 16:28:10;;;;;;;5.78;3.17;;;;;;;6.05;59.65;101612.59;5448163;32;34964;-68
2021/12/17 16:31:21;;;;;;;9.83;3.47;;;;;;;5.90;59.46;101632.56;5445322;32;35404;-67
2021/12/17 16:34:24;;;;;;;10.73;3.00;;;;;;;6.09;59.69;101628.25;5451899;32;32776;-65
2021/12/17 16:37:26;;;;;;;8.37;2.93;;;;;;;5.93;59.72;101627.41;5447159;32;34093;-65
2021/12/17 16:40:30;;;;;;;10.98;4.07;;;;;;;5.84;59.92;101623.87;5441841;32;33649;-68
2021/12/17 16:43:33;;;;;;;9.50;3.20;;;;;;;5.67;60.20;101627.38;5466462;32;33371;-66
2021/12/17 16:49:45;;;;;;;10.17;3.27;;;;;;;6.16;58.61;101631.72;5449714;32;32996;-67
2021/12/17 16:52:50;;;;;;;9.27;4.37;;;;;;;5.96;59.22;101627.38;5438492;32;34190;-65
2021/12/17 16:55:53;;;;;;;9.40;3.20;;;;;;;5.77;59.73;101628.22;5461144;32;32605;-67
2021/12/17 16:58:56;;;;;;;11.38;3.70;;;;;;;6.03;59.38;101617.81;5457715;32;33614;-66
2021/12/17 17:02:00;;;;;;;9.85;3.53;;;;;;;6.00;59.18;101622.19;5437587;32;34114;-65
2021/12/17 17:05:04;;;;;;;10.00;3.20;;;;;;;5.35;61.32;101635.12;5455172;32;33829;-66
2021/12/17 17:08:09;;;;;;;8.67;3.20;;;;;;;6.15;59.45;101612.59;5437475;32;34727;-66
2021/12/17 17:11:17;;;;;;;10.47;3.37;;;;;;;5.82;60.07;101617.81;5452799;32;34295;-68
2021/12/17 17:14:20;;;;;;;9.63;3.43;;;;;;;5.27;62.25;101631.62;5431192;32;34963;-66
2021/12/17 17:17:23;;;;;;;10.63;3.87;;;;;;;5.38;61.91;101624.69;5460663;32;34829;-65
2021/12/17 17:20:30;;;;;;;11.13;3.60;;;;;;;5.80;60.77;101622.16;5443266;32;35753;-66
2021/12/17 17:23:35;;;;;;;11.50;4.37;;;;;;;5.62;61.11;101625.63;5455489;32;34587;-65
2021/12/17 17:26:39;;;;;;;10.93;3.90;;;;;;;5.72;60.69;101616.91;5474859;32;34753;-62
2021/12/17 17:29:44;;;;;;;;;;;;;;;5.57;60.65;101616.91;5438977;32;32805;-62
2021/12/17 17:32:50;;;;;;;9.30;3.40;;;;;;;5.36;62.03;101608.19;5458418;32;34583;-63
2021/12/17 17:36:01;;;;;;;13.33;4.53;;;;;;;5.50;60.91;101620.37;5438025;32;33060;-63
2021/12/17 17:39:06;;;;;;;12.20;3.50;;;;;;;5.17;62.56;101635.09;5442675;32;34607;-62